Time;durP1;ratioP1;P1;durP2;ratioP2;P2;SDS_P1;SDS_P2;PMS_P1;PMS_P2;Temp;Humidity;BMP_temperature;BMP_pressure;BME280_temperature;BME280_humidity;BME280_pressure;Samples;Min_cycle;Max_cycle;Signal;HPM_P1;HPM_P2
2022/05/15 00:02:40;;;;;;;33.60;11.18;;;;;;;18.79;91.85;100694.75;5055106;28;20559;-87
2022/05/15 00:05:07;;;;;;;33.97;11.45;;;;;;;18.59;93.80;100685.28;5056128;28;20029;-90
2022/05/15 00:07:34;;;;;;;29.40;11.48;;;;;;;18.47;95.31;100692.94;5052635;28;20798;-88
2022/05/15 00:09:59;;;;;;;22.05;11.38;;;;;;;18.48;96.88;100700.94;5055097;28;20024;-87
2022/05/15 00:12:26;;;;;;;28.27;12.48;;;;;;;18.43;98.50;100676.13;5055835;28;20052;-86
2022/05/15 00:14:54;;;;;;;18.38;9.63;;;;;;;18.54;98.53;100698.56;5062907;28;20037;-88
2022/05/15 00:17:20;;;;;;;23.83;9.15;;;;;;;18.30;97.76;100670.34;5061454;28;20430;-86
2022/05/15 00:19:45;;;;;;;18.13;10.02;;;;;;;18.38;97.42;100683.09;5057685;28;20031;-86
2022/05/15 00:22:11;;;;;;;20.67;9.25;;;;;;;18.30;98.00;100681.25;5055036;28;20093;-85
2022/05/15 00:24:37;;;;;;;18.48;8.80;;;;;;;18.22;98.77;100675.81;5055053;28;20112;-85
2022/05/15 00:27:03;;;;;;;18.65;8.90;;;;;;;18.33;99.47;100690.94;5052181;28;20024;-84
2022/05/15 00:29:29;;;;;;;18.55;8.70;;;;;;;18.36;99.85;100702.34;5053580;28;20024;-84
2022/05/15 00:31:55;;;;;;;8.25;6.15;;;;;;;18.23;97.34;100696.56;5054026;28;20395;-84
2022/05/15 00:34:20;;;;;;;13.00;6.80;;;;;;;18.08;97.11;100687.38;5053107;28;20052;-85
2022/05/15 00:36:46;;;;;;;11.73;7.10;;;;;;;18.04;97.97;100686.03;5053927;28;20033;-83
2022/05/15 00:39:12;;;;;;;9.70;7.07;;;;;;;18.03;99.54;100689.78;5053190;28;20487;-83
2022/05/15 00:41:38;;;;;;;8.68;6.60;;;;;;;18.06;100.00;100697.59;5054261;28;20037;-82
2022/05/15 00:44:05;;;;;;;9.43;6.80;;;;;;;18.15;99.84;100714.78;5053727;28;20059;-84
2022/05/15 00:46:34;;;;;;;12.43;7.78;;;;;;;18.13;100.00;100714.13;5053609;28;20057;-84
2022/05/15 00:49:07;;;;;;;9.65;7.45;;;;;;;18.15;100.00;100714.78;5053194;28;20025;-85
2022/05/15 00:51:46;;;;;;;12.40;7.30;;;;;;;18.12;100.00;100721.41;5052728;28;20470;-83
2022/05/15 00:54:24;;;;;;;8.85;6.60;;;;;;;17.99;100.00;100715.63;5054186;28;20033;-83
2022/05/15 00:56:57;;;;;;;19.92;9.13;;;;;;;18.09;100.00;100727.22;5072053;28;20016;-82
2022/05/15 00:59:26;;;;;;;11.13;8.65;;;;;;;18.22;100.00;100722.09;5062286;28;20044;-83
2022/05/15 01:01:52;;;;;;;14.50;7.63;;;;;;;18.30;100.00;100724.81;5052854;28;20043;-83
2022/05/15 01:04:18;;;;;;;13.00;7.38;;;;;;;18.29;100.00;100717.66;5052655;28;20055;-82
2022/05/15 01:06:43;;;;;;;16.20;8.57;;;;;;;18.28;100.00;100721.41;5052972;28;20029;-82
2022/05/15 01:09:11;;;;;;;12.30;8.63;;;;;;;18.38;100.00;100732.94;5052880;28;20029;-82
2022/05/15 01:11:38;;;;;;;10.23;7.57;;;;;;;18.39;100.00;100731.09;5052732;28;20029;-82
2022/05/15 01:14:09;;;;;;;15.43;8.95;;;;;;;18.40;100.00;100730.94;5052905;28;20159;-82
2022/05/15 01:16:36;;;;;;;15.80;10.27;;;;;;;18.41;100.00;100727.16;5052775;28;20021;-82
2022/05/15 01:19:03;;;;;;;13.30;8.70;;;;;;;18.41;100.00;100727.16;5052773;28;20033;-82
2022/05/15 01:21:51;;;;;;;12.98;8.02;;;;;;;18.44;100.00;100732.25;5052567;28;20025;-82
2022/05/15 01:24:17;;;;;;;12.25;7.30;;;;;;;18.38;100.00;100730.22;5052625;28;20403;-82
2022/05/15 01:26:42;;;;;;;13.15;7.82;;;;;;;18.30;100.00;100735.69;5053453;28;20029;-82
2022/05/15 01:29:08;;;;;;;14.88;9.98;;;;;;;18.36;100.00;100735.00;5054479;28;20479;-82
2022/05/15 01:31:37;;;;;;;13.85;9.63;;;;;;;18.37;100.00;100730.41;5054322;28;20506;-83
2022/05/15 01:34:05;;;;;;;14.85;9.70;;;;;;;18.33;100.00;100734.50;5056017;28;20068;-84
2022/05/15 01:36:31;;;;;;;10.85;8.98;;;;;;;18.30;100.00;100727.53;5061403;28;20084;-83
2022/05/15 01:38:56;;;;;;;12.15;8.80;;;;;;;18.23;100.00;100720.22;5055010;28;20134;-83
2022/05/15 01:41:24;;;;;;;13.85;7.63;;;;;;;18.17;100.00;100713.59;5052758;28;20033;-83
2022/05/15 01:43:53;;;;;;;12.32;7.57;;;;;;;18.21;100.00;100709.50;5054830;28;20056;-83
2022/05/15 01:46:21;;;;;;;12.15;6.82;;;;;;;18.21;100.00;100717.69;5052538;28;20033;-83
2022/05/15 01:48:48;;;;;;;9.93;7.03;;;;;;;18.20;100.00;100718.69;5052318;28;20099;-83
2022/05/15 01:51:13;;;;;;;7.97;6.82;;;;;;;18.21;100.00;100720.41;5052765;28;20028;-82
2022/05/15 01:53:39;;;;;;;12.27;7.13;;;;;;;18.20;100.00;100706.94;5052834;28;20367;-82
2022/05/15 01:56:06;;;;;;;9.98;8.05;;;;;;;18.25;100.00;100705.44;5052427;28;20082;-82
2022/05/15 01:58:32;;;;;;;13.82;7.32;;;;;;;18.28;100.00;100709.66;5052250;28;20512;-82
2022/05/15 02:00:57;;;;;;;12.80;9.13;;;;;;;18.30;100.00;100705.75;5052367;28;20029;-82
2022/05/15 02:03:23;;;;;;;10.77;9.38;;;;;;;18.32;100.00;100711.84;5051960;28;20013;-82
2022/05/15 02:05:48;;;;;;;12.38;8.95;;;;;;;18.39;100.00;100712.88;5052499;28;20033;-82
2022/05/15 02:08:14;;;;;;;10.57;7.85;;;;;;;18.41;100.00;100712.69;5054139;28;20031;-82
2022/05/15 02:10:40;;;;;;;10.52;9.07;;;;;;;18.43;100.00;100714.25;5052046;28;20402;-81
2022/05/15 02:13:06;;;;;;;9.05;8.05;;;;;;;18.37;100.00;100704.03;5051150;28;20033;-80
2022/05/15 02:15:31;;;;;;;10.00;8.52;;;;;;;18.43;100.00;100714.25;5052860;28;20414;-82
2022/05/15 02:17:57;;;;;;;12.85;8.18;;;;;;;18.41;100.00;100699.06;5051467;28;20028;-80
2022/05/15 02:20:22;;;;;;;10.07;7.68;;;;;;;18.49;100.00;100712.72;5051645;28;20033;-82
2022/05/15 02:22:48;;;;;;;13.15;9.27;;;;;;;18.46;100.00;100703.00;5051765;28;20029;-82
2022/05/15 02:25:14;;;;;;;18.45;8.23;;;;;;;18.55;100.00;100716.63;5051701;28;20094;-81
2022/05/15 02:27:40;;;;;;;14.13;8.98;;;;;;;18.58;100.00;100710.81;5051919;28;20052;-81
2022/05/15 02:30:08;;;;;;;15.48;9.63;;;;;;;18.63;100.00;100711.13;5052334;28;20382;-81
2022/05/15 02:32:33;;;;;;;11.35;8.50;;;;;;;18.66;100.00;100721.69;5059569;28;20044;-81
2022/05/15 02:34:59;;;;;;;15.52;9.73;;;;;;;18.67;100.00;100716.09;5066630;28;20088;-81
2022/05/15 02:37:24;;;;;;;10.20;8.73;;;;;;;18.71;100.00;100728.34;5051826;28;20021;-81
2022/05/15 02:39:50;;;;;;;13.25;8.10;;;;;;;18.75;100.00;100726.94;5051874;28;20024;-82
2022/05/15 02:42:15;;;;;;;11.50;8.32;;;;;;;18.82;100.00;100740.72;5054622;28;20020;-82
2022/05/15 02:44:40;;;;;;;22.02;8.48;;;;;;;18.86;100.00;100731.19;5055158;28;20017;-82
2022/05/15 02:47:06;;;;;;;13.13;8.75;;;;;;;18.91;100.00;100745.97;5055137;28;20025;-82
2022/05/15 02:52:16;;;;;;;10.13;8.63;;;;;;;18.77;99.91;100741.25;5055409;28;20067;-82
2022/05/15 02:54:43;;;;;;;10.23;8.50;;;;;;;18.85;99.93;100743.97;5055253;28;20049;-81
2022/05/15 02:57:10;;;;;;;11.70;8.88;;;;;;;18.84;100.00;100750.41;5055201;28;20025;-81
2022/05/15 02:59:37;;;;;;;9.90;7.32;;;;;;;18.72;99.53;100760.00;5055206;28;20033;-81
2022/05/15 03:02:03;;;;;;;10.27;7.78;;;;;;;18.82;99.10;100760.66;5055372;28;20024;-81
2022/05/15 03:04:28;;;;;;;13.93;7.93;;;;;;;18.76;98.71;100749.59;5055006;28;20024;-81
2022/05/15 03:06:54;;;;;;;12.18;7.18;;;;;;;18.79;98.16;100757.44;5054939;28;20029;-81
2022/05/15 03:09:20;;;;;;;8.65;7.18;;;;;;;18.66;97.04;100757.09;5055062;28;20021;-82
2022/05/15 03:11:45;;;;;;;7.63;6.80;;;;;;;18.68;95.93;100760.53;5054689;28;20029;-81
2022/05/15 03:14:12;;;;;;;10.98;7.38;;;;;;;18.81;96.74;100772.56;5054855;28;20025;-82
2022/05/15 03:16:38;;;;;;;6.50;4.93;;;;;;;18.63;95.64;100768.34;5055922;28;20024;-81
2022/05/15 03:19:03;;;;;;;7.18;5.15;;;;;;;18.67;94.60;100770.56;5058862;28;20025;-82
2022/05/15 03:21:29;;;;;;;6.82;5.15;;;;;;;18.71;94.63;100779.25;5055691;28;20478;-82
2022/05/15 03:24:02;;;;;;;7.05;6.35;;;;;;;18.78;95.88;100782.97;5059608;28;20017;-82
2022/05/15 03:26:29;;;;;;;10.30;7.20;;;;;;;18.89;97.45;100779.88;5078785;28;20069;-82
2022/05/15 03:28:55;;;;;;;14.30;7.47;;;;;;;18.93;98.25;100798.44;5074309;28;20402;-80
2022/05/15 03:31:20;;;;;;;9.55;7.22;;;;;;;18.97;98.62;100798.94;5078549;28;20028;-81
2022/05/15 03:33:47;;;;;;;12.38;9.00;;;;;;;19.04;99.01;100794.50;5065664;28;20056;-82
2022/05/15 03:36:14;;;;;;;15.13;10.88;;;;;;;19.04;98.85;100794.50;5060033;28;20029;-83
2022/05/15 03:38:42;;;;;;;13.93;9.88;;;;;;;19.10;98.44;100803.84;5061097;28;20028;-83
2022/05/15 03:41:08;;;;;;;17.50;10.55;;;;;;;19.15;98.26;100799.56;5063564;28;20017;-82
2022/05/15 03:43:34;;;;;;;12.85;9.23;;;;;;;19.13;98.29;100809.81;5054860;28;20025;-82
2022/05/15 03:46:00;;;;;;;11.70;9.55;;;;;;;19.18;98.15;100811.97;5054182;28;20028;-82
2022/05/15 03:48:26;;;;;;;16.35;10.63;;;;;;;19.23;98.42;100809.59;5054059;28;20025;-82
2022/05/15 03:50:51;;;;;;;12.90;10.32;;;;;;;19.24;98.33;100814.00;5054285;28;20036;-82
2022/05/15 03:53:17;;;;;;;12.98;9.52;;;;;;;19.29;98.64;100808.91;5066837;28;20107;-82
2022/05/15 03:55:42;;;;;;;14.63;8.57;;;;;;;19.30;98.55;100811.44;5064201;28;20137;-82
2022/05/15 03:58:08;;;;;;;12.95;9.15;;;;;;;19.33;97.79;100810.22;5054013;28;20414;-83
2022/05/15 04:00:34;;;;;;;14.40;9.00;;;;;;;19.34;97.52;100815.50;5053775;28;20122;-83
2022/05/15 04:03:00;;;;;;;16.70;10.00;;;;;;;19.29;97.32;100820.66;5053593;28;20083;-85
2022/05/15 04:05:27;;;;;;;12.05;8.95;;;;;;;19.31;97.76;100823.19;5054027;28;20016;-83
2022/05/15 04:07:56;;;;;;;17.20;9.38;;;;;;;19.36;98.09;100832.53;5053268;28;20024;-83
2022/05/15 04:10:22;;;;;;;16.75;9.65;;;;;;;19.35;98.21;100836.31;5070758;28;20051;-82
2022/05/15 04:12:48;;;;;;;12.18;7.68;;;;;;;19.28;98.01;100829.84;5061945;28;20039;-83
2022/05/15 04:15:14;;;;;;;14.93;8.45;;;;;;;19.29;97.57;100838.91;5053642;28;20112;-81
2022/05/15 04:17:51;;;;;;;12.20;8.77;;;;;;;19.24;96.96;100836.69;5053766;28;20032;-81
2022/05/15 04:20:20;;;;;;;12.75;7.53;;;;;;;19.30;95.91;100838.69;5053562;28;20029;-82
2022/05/15 04:22:45;;;;;;;9.93;8.48;;;;;;;19.30;95.18;100838.69;5053122;28;20036;-80
2022/05/15 04:25:11;;;;;;;11.90;8.57;;;;;;;19.32;95.75;100833.94;5053356;28;20400;-80
2022/05/15 04:27:38;;;;;;;14.98;9.35;;;;;;;19.36;96.21;100848.91;5053551;28;20459;-80
2022/05/15 04:30:04;;;;;;;19.08;9.27;;;;;;;19.27;96.54;100849.97;5053351;28;20048;-80
2022/05/15 04:32:29;;;;;;;15.68;9.35;;;;;;;19.25;96.95;100852.03;5053205;28;20072;-80
2022/05/15 04:34:55;;;;;;;10.93;8.73;;;;;;;19.32;97.50;100852.19;5051786;28;20032;-80
2022/05/15 04:37:20;;;;;;;17.35;10.05;;;;;;;19.28;96.70;100851.69;5053761;28;20024;-84
2022/05/15 04:39:46;;;;;;;10.85;8.65;;;;;;;19.24;96.95;100849.47;5053868;28;20017;-84
2022/05/15 04:42:11;;;;;;;13.02;9.93;;;;;;;19.26;97.46;100845.56;5054206;28;20461;-85
2022/05/15 04:44:36;;;;;;;12.65;9.27;;;;;;;19.29;97.85;100853.38;5056846;28;20041;-86
2022/05/15 04:47:02;;;;;;;15.70;11.05;;;;;;;19.36;98.04;100850.78;5058825;28;20029;-87
2022/05/15 04:49:27;;;;;;;11.27;9.90;;;;;;;19.20;98.22;100859.91;5054820;28;20467;-84
2022/05/15 04:51:53;;;;;;;21.15;10.98;;;;;;;19.25;99.12;100860.22;5055150;28;20021;-84
2022/05/15 04:54:18;;;;;;;16.40;11.95;;;;;;;19.30;99.65;100860.53;5054090;28;20033;-85
2022/05/15 04:56:44;;;;;;;16.63;10.23;;;;;;;19.29;99.95;100861.56;5052548;28;20086;-84
2022/05/15 04:59:09;;;;;;;14.05;9.68;;;;;;;19.41;100.00;100868.38;5054159;28;20108;-83
2022/05/15 05:01:35;;;;;;;12.35;10.63;;;;;;;19.45;100.00;100864.25;5053803;28;20049;-85
2022/05/15 05:04:01;;;;;;;17.55;9.85;;;;;;;19.46;99.68;100860.50;5056055;28;20055;-85
2022/05/15 05:06:27;;;;;;;16.20;10.40;;;;;;;19.50;99.00;100871.91;5058171;28;20032;-84
2022/05/15 05:08:54;;;;;;;20.95;11.25;;;;;;;19.51;98.19;100874.47;5053403;28;20471;-86
2022/05/15 05:11:19;;;;;;;15.18;11.40;;;;;;;19.54;98.02;100873.25;5054230;28;20025;-86
2022/05/15 05:13:45;;;;;;;17.88;10.10;;;;;;;19.57;97.71;100883.81;5051661;28;20481;-85
2022/05/15 05:16:11;;;;;;;20.23;10.82;;;;;;;19.50;97.32;100875.50;5052686;28;20028;-85
2022/05/15 05:18:37;;;;;;;16.35;10.77;;;;;;;19.63;96.64;100876.81;5052506;28;20445;-84
2022/05/15 05:21:03;;;;;;;15.95;10.02;;;;;;;19.69;96.62;100874.22;5052782;28;20112;-79
2022/05/15 05:23:29;;;;;;;18.13;10.35;;;;;;;19.58;95.46;100874.59;5056927;28;20056;-80
2022/05/15 05:25:55;;;;;;;12.27;8.82;;;;;;;19.49;93.31;100873.78;5052084;28;20388;-86
2022/05/15 05:28:21;;;;;;;16.83;9.07;;;;;;;19.55;92.28;100880.41;5052873;28;20053;-85
2022/05/15 05:30:46;;;;;;;11.75;8.27;;;;;;;19.59;91.73;100870.00;5052308;28;20114;-85
2022/05/15 05:33:12;;;;;;;18.00;10.48;;;;;;;19.61;90.40;100871.53;5051568;28;20056;-82
2022/05/15 05:35:38;;;;;;;15.93;10.50;;;;;;;19.64;90.50;100868.44;5051569;28;20068;-82
2022/05/15 05:38:05;;;;;;;9.52;8.63;;;;;;;19.55;90.16;100875.81;5053094;28;20020;-83
2022/05/15 05:40:31;;;;;;;15.98;8.82;;;;;;;19.59;90.14;100886.38;5052328;28;20035;-83
2022/05/15 05:42:56;;;;;;;14.55;10.07;;;;;;;19.66;90.59;100882.78;5052661;28;20108;-82
2022/05/15 05:45:22;;;;;;;17.85;10.95;;;;;;;19.62;90.61;100872.38;5053196;28;20029;-83
2022/05/15 05:47:50;;;;;;;18.20;10.68;;;;;;;19.68;90.60;100879.84;5053610;28;20049;-83
2022/05/15 05:50:18;;;;;;;12.70;8.98;;;;;;;19.71;90.61;100879.50;5072348;28;20025;-83
2022/05/15 05:52:43;;;;;;;18.63;9.73;;;;;;;19.76;89.95;100890.72;5055662;28;20112;-83
2022/05/15 05:55:13;;;;;;;16.20;11.55;;;;;;;19.89;90.27;100886.41;5051850;28;20126;-83
2022/05/15 05:57:40;;;;;;;12.55;11.25;;;;;;;20.04;91.21;100886.47;5052101;28;20110;-83
2022/05/15 06:00:08;;;;;;;21.42;11.55;;;;;;;20.20;92.25;100886.41;5052387;28;20044;-83
2022/05/15 06:02:33;;;;;;;17.88;12.15;;;;;;;20.34;92.23;100887.50;5051019;28;20028;-84
2022/05/15 06:04:58;;;;;;;22.98;13.05;;;;;;;20.40;92.26;100890.38;5051975;28;20013;-85
2022/05/15 06:07:26;;;;;;;13.02;10.18;;;;;;;20.39;91.30;100894.16;5050774;28;20552;-83
2022/05/15 06:09:52;;;;;;;16.70;11.68;;;;;;;20.42;89.76;100882.88;5051765;28;20456;-83
2022/05/15 06:12:22;;;;;;;13.30;11.38;;;;;;;20.48;89.43;100901.25;5051688;28;20029;-82
2022/05/15 06:14:47;;;;;;;18.20;11.60;;;;;;;20.43;89.83;100887.28;5051188;28;20025;-84
2022/05/15 06:17:13;;;;;;;11.98;9.27;;;;;;;20.47;90.19;100899.56;5055174;28;20052;-82
2022/05/15 06:19:40;;;;;;;18.13;9.75;;;;;;;20.47;89.28;100896.81;5055451;28;20090;-81
2022/05/15 06:22:06;;;;;;;13.70;10.88;;;;;;;20.40;89.29;100897.72;5055586;28;20435;-82
2022/05/15 06:24:32;;;;;;;15.77;10.48;;;;;;;20.19;88.87;100892.03;5054353;28;20116;-82
2022/05/15 06:27:02;;;;;;;19.10;11.52;;;;;;;20.16;90.57;100886.91;5055664;28;20029;-82
2022/05/15 06:29:29;;;;;;;14.60;12.43;;;;;;;20.18;91.10;100891.19;5055848;28;20150;-81
2022/05/15 06:31:55;;;;;;;19.83;13.82;;;;;;;20.17;91.71;100885.91;5055563;28;20772;-78
2022/05/15 06:34:21;;;;;;;23.65;14.00;;;;;;;20.24;91.74;100893.22;5054521;28;20095;-80
2022/05/15 06:36:47;;;;;;;23.98;15.40;;;;;;;20.15;91.64;100891.53;5054779;28;20025;-79
2022/05/15 06:39:13;;;;;;;21.48;13.43;;;;;;;20.10;91.81;100896.69;5054577;28;20082;-79
2022/05/15 06:41:38;;;;;;;19.80;14.25;;;;;;;20.19;91.82;100901.06;5054547;28;20059;-79
2022/05/15 06:44:05;;;;;;;18.45;14.43;;;;;;;20.23;91.88;100905.16;5054644;28;20027;-80
2022/05/15 06:46:30;;;;;;;18.27;14.07;;;;;;;20.21;91.58;100899.03;5054657;28;20056;-81
2022/05/15 06:48:56;;;;;;;22.50;14.55;;;;;;;20.38;91.34;100900.66;5054615;28;20049;-81
2022/05/15 06:51:21;;;;;;;14.32;12.00;;;;;;;20.35;88.85;100903.75;5054365;28;20029;-80
2022/05/15 06:53:48;;;;;;;20.05;13.13;;;;;;;20.46;87.91;100903.31;5054166;28;20480;-80
2022/05/15 06:58:58;;;;;;;19.35;12.60;;;;;;;20.49;88.00;100905.69;5055492;28;20032;-85
2022/05/15 07:01:24;;;;;;;13.82;11.98;;;;;;;20.47;86.61;100902.28;5054916;28;20402;-81
2022/05/15 07:03:50;;;;;;;14.00;11.40;;;;;;;20.54;86.37;100906.00;5054763;28;20028;-83
2022/05/15 07:06:15;;;;;;;13.68;10.05;;;;;;;20.47;85.74;100883.16;5055095;28;20033;-89
2022/05/15 07:08:42;;;;;;;19.90;10.70;;;;;;;20.62;86.49;100896.88;5053850;28;20036;-92
2022/05/15 07:11:10;;;;;;;17.42;10.98;;;;;;;20.62;86.00;100897.72;5056643;28;20560;-92
2022/05/15 07:13:35;;;;;;;20.40;10.40;;;;;;;20.68;84.87;100900.75;5055553;28;20103;-91
2022/05/15 07:16:01;;;;;;;15.13;9.63;;;;;;;20.83;85.13;100901.63;5057806;28;20044;-90
2022/05/15 07:18:26;;;;;;;9.98;8.23;;;;;;;20.84;84.44;100895.16;5056388;28;20447;-92
2022/05/15 07:20:52;;;;;;;16.98;8.27;;;;;;;20.85;83.55;100905.06;5055276;28;20045;-92
2022/05/15 07:23:19;;;;;;;12.98;9.30;;;;;;;20.74;82.84;100900.88;5056803;28;20522;-90
2022/05/15 07:25:45;;;;;;;13.93;9.23;;;;;;;20.64;83.48;100901.13;5054968;28;20033;-83
2022/05/15 07:28:11;;;;;;;25.17;10.10;;;;;;;20.64;83.91;100897.53;5064854;28;20072;-84
2022/05/15 07:30:36;;;;;;;17.33;9.38;;;;;;;20.68;84.21;100901.59;5071253;28;20033;-85
2022/05/15 07:33:02;;;;;;;25.20;8.93;;;;;;;20.85;85.17;100908.66;5055197;28;20061;-85
2022/05/15 07:35:28;;;;;;;14.68;6.55;;;;;;;20.92;84.52;100904.13;5054279;28;20029;-84
2022/05/15 07:37:54;;;;;;;17.33;7.40;;;;;;;21.12;83.54;100912.69;5054078;28;20021;-84
2022/05/15 07:40:20;;;;;;;22.30;6.82;;;;;;;21.28;82.53;100909.81;5057002;28;20025;-85
2022/05/15 07:42:45;;;;;;;15.88;6.43;;;;;;;21.29;80.53;100900.53;5054632;28;20086;-86
2022/05/15 07:45:13;;;;;;;18.25;6.88;;;;;;;21.30;79.48;100920.53;5054004;28;20446;-87
2022/05/15 07:47:39;;;;;;;17.77;6.32;;;;;;;21.17;78.23;100904.78;5054144;28;20427;-83
2022/05/15 07:50:05;;;;;;;13.25;5.50;;;;;;;21.11;77.40;100916.47;5054117;28;20029;-84
2022/05/15 07:52:30;;;;;;;18.05;5.95;;;;;;;21.13;77.53;100914.38;5056583;28;20036;-84
2022/05/15 07:54:56;;;;;;;7.20;5.65;;;;;;;21.14;76.98;100924.28;5054697;28;20017;-84
2022/05/15 07:57:21;;;;;;;12.38;5.47;;;;;;;21.13;77.85;100897.97;5054402;28;20056;-84
2022/05/15 07:59:47;;;;;;;14.25;4.90;;;;;;;21.24;76.14;100922.16;5053873;28;20120;-85
2022/05/15 08:02:12;;;;;;;59.25;8.60;;;;;;;21.22;75.43;100915.16;5054415;28;20029;-86
2022/05/15 08:10:08;;;;;;;12.23;5.53;;;;;;;21.38;73.66;100932.25;5054307;28;20035;-86
2022/05/15 08:12:36;;;;;;;16.33;5.03;;;;;;;21.36;73.64;100922.53;5054686;28;20032;-86
2022/05/15 08:15:04;;;;;;;6.07;3.80;;;;;;;21.38;72.17;100932.25;5060006;28;20031;-89
2022/05/15 08:17:29;;;;;;;21.98;4.43;;;;;;;21.36;71.88;100934.34;5058416;28;20098;-88
2022/05/15 08:25:37;;;;;;;24.13;5.05;;;;;;;21.17;71.85;100940.31;5033524;28;20115;-89
2022/05/15 08:28:03;;;;;;;44.60;7.22;;;;;;;21.10;72.49;100944.84;5034256;28;20022;-89
2022/05/15 08:30:29;;;;;;;65.95;9.65;;;;;;;21.13;74.91;100934.38;5034181;28;20025;-89
2022/05/15 08:32:54;;;;;;;21.35;9.35;;;;;;;21.24;73.18;100941.28;5053075;28;20049;-87
2022/05/15 08:35:20;;;;;;;16.25;6.82;;;;;;;21.20;73.36;100934.50;5053514;28;20100;-88
2022/05/15 08:37:45;;;;;;;38.40;7.50;;;;;;;21.29;73.61;100937.97;5054096;28;20021;-89
2022/05/15 08:40:11;;;;;;;22.05;6.43;;;;;;;21.27;72.34;100938.19;5053428;28;20440;-85
2022/05/15 08:42:58;;;;;;;17.58;5.95;;;;;;;21.39;73.15;100938.56;5054903;28;20086;-87
2022/05/15 08:45:28;;;;;;;23.45;6.82;;;;;;;21.46;73.64;100945.00;5054246;28;20028;-89
2022/05/15 08:48:02;;;;;;;24.67;6.65;;;;;;;21.30;72.01;100948.75;5053434;28;20393;-85
2022/05/15 08:50:33;;;;;;;61.50;9.02;;;;;;;21.44;73.92;100942.44;5053077;28;20021;-86
2022/05/15 08:53:08;;;;;;;46.15;9.32;;;;;;;21.58;73.19;100946.25;5053325;28;20052;-87
2022/05/15 08:56:07;;;;;;;15.73;6.97;;;;;;;21.81;72.91;100944.25;5056655;28;20075;-85
2022/05/15 08:58:52;;;;;;;20.92;8.50;;;;;;;21.97;73.18;100954.19;5050338;28;20139;-83
2022/05/15 09:01:24;;;;;;;64.78;10.02;;;;;;;22.07;72.87;100938.31;5053412;28;20491;-84
2022/05/15 09:03:52;;;;;;;30.17;7.68;;;;;;;22.02;70.28;100943.50;5056422;28;20406;-85
2022/05/15 09:06:48;;;;;;;28.20;7.18;;;;;;;21.94;71.20;100949.94;5061594;28;20059;-84
2022/05/15 09:09:35;;;;;;;15.45;6.85;;;;;;;21.74;71.49;100931.50;5069365;28;20021;-86
2022/05/15 09:12:14;;;;;;;32.30;7.28;;;;;;;21.53;72.50;100933.09;5054967;28;20052;-86
2022/05/15 09:15:04;;;;;;;20.33;7.80;;;;;;;21.50;73.88;100940.84;5053815;28;20032;-84
2022/05/15 09:17:58;;;;;;;22.25;6.75;;;;;;;21.56;74.34;100943.66;5054001;28;20052;-84
2022/05/15 09:20:24;;;;;;;32.53;8.75;;;;;;;21.62;75.36;100948.41;5052293;28;20021;-83
2022/05/15 09:23:34;;;;;;;39.10;9.25;;;;;;;21.81;75.80;100943.38;5053138;28;20100;-82
2022/05/15 09:26:22;;;;;;;30.75;8.25;;;;;;;21.95;73.01;100945.31;5046034;28;20040;-81
2022/05/15 09:28:58;;;;;;;12.75;6.22;;;;;;;22.09;73.40;100938.94;5052145;28;20017;-84
2022/05/15 09:31:38;;;;;;;21.83;10.70;;;;;;;22.34;74.20;100934.84;5052359;28;20027;-83
2022/05/15 09:34:20;;;;;;;60.00;9.55;;;;;;;22.67;73.51;100936.06;5051954;28;20118;-83
2022/05/15 09:36:47;;;;;;;21.42;6.25;;;;;;;22.88;71.31;100942.56;5052808;28;20049;-83
2022/05/15 09:39:57;;;;;;;23.63;6.85;;;;;;;22.82;71.31;100935.13;5051997;28;20111;-82
2022/05/15 09:45:16;;;;;;;28.00;7.38;;;;;;;22.76;70.90;100934.03;5051715;28;20410;-82
2022/05/15 09:47:50;;;;;;;;;;;;;;;22.87;71.42;100929.94;5052016;28;20442;-81
2022/05/15 09:50:40;;;;;;;41.90;14.20;;;;;;;22.69;69.65;100931.22;5053909;28;19916;-81
2022/05/15 09:53:18;;;;;;;14.55;6.00;;;;;;;22.54;68.78;100929.53;5055627;28;20542;-85
2022/05/15 09:55:56;;;;;;;51.88;9.27;;;;;;;22.37;70.11;100926.22;5055946;28;20021;-81
2022/05/15 09:58:22;;;;;;;25.27;7.35;;;;;;;22.35;68.62;100920.09;5055611;28;20086;-81
2022/05/15 10:00:48;;;;;;;10.63;5.47;;;;;;;22.24;69.35;100923.31;5055716;28;20021;-82
2022/05/15 10:03:23;;;;;;;19.25;6.07;;;;;;;22.26;69.02;100921.25;5054345;28;20086;-83
2022/05/15 10:06:06;;;;;;;24.30;7.15;;;;;;;22.11;69.11;100924.00;5054314;28;20499;-81
2022/05/15 10:08:32;;;;;;;18.88;6.38;;;;;;;22.02;69.68;100932.53;5055299;28;20028;-81
2022/05/15 10:11:11;;;;;;;36.45;8.25;;;;;;;22.14;69.94;100936.47;5055236;28;20025;-81
2022/05/15 10:13:52;;;;;;;28.13;6.43;;;;;;;22.17;69.73;100922.38;5055111;28;20507;-81
2022/05/15 10:16:21;;;;;;;32.35;8.18;;;;;;;22.28;70.49;100930.13;5054995;28;20052;-80
2022/05/15 10:18:56;;;;;;;18.75;6.50;;;;;;;22.51;70.96;100917.09;5054992;28;20024;-81
2022/05/15 10:21:29;;;;;;;13.05;6.18;;;;;;;22.66;70.35;100920.66;5035270;28;20025;-81
2022/05/15 10:24:04;;;;;;;22.30;6.20;;;;;;;22.75;69.00;100922.19;5034837;28;20068;-81
2022/05/15 10:26:41;;;;;;;37.47;7.25;;;;;;;22.81;68.14;100915.13;5034722;28;20502;-80
2022/05/15 10:29:36;;;;;;;21.55;6.55;;;;;;;22.89;67.63;100916.84;5034722;28;20025;-80
2022/05/15 10:32:17;;;;;;;30.67;6.32;;;;;;;23.03;67.16;100915.91;5032792;28;20037;-80
2022/05/15 10:34:43;;;;;;;20.70;4.80;;;;;;;23.19;66.51;100908.25;5034590;28;20037;-81
2022/05/15 10:37:41;;;;;;;31.05;5.63;;;;;;;23.11;65.95;100910.28;5035655;28;20021;-78
2022/05/15 10:40:15;;;;;;;33.40;6.50;;;;;;;23.10;65.14;100914.06;5022840;28;20041;-78
2022/05/15 10:43:06;;;;;;;33.78;6.10;;;;;;;22.96;64.49;100918.63;5034742;28;20025;-79
2022/05/15 10:45:56;;;;;;;17.95;4.95;;;;;;;22.82;64.71;100921.41;5045554;28;20032;-81
2022/05/15 10:48:40;;;;;;;15.52;4.93;;;;;;;22.69;65.09;100933.97;5043973;28;20104;-80
2022/05/15 10:51:24;;;;;;;21.30;4.78;;;;;;;22.71;65.48;100942.88;5034643;28;20026;-80
2022/05/15 10:57:26;;;;;;;28.92;7.45;;;;;;;22.38;65.69;100946.25;5034814;28;20052;-80
2022/05/15 11:00:19;;;;;;;22.63;5.45;;;;;;;22.26;65.47;100948.66;5034196;28;20064;-80
2022/05/15 11:03:33;;;;;;;13.73;5.30;;;;;;;22.23;65.71;100951.78;5038908;28;20096;-81
2022/05/15 11:05:58;;;;;;;24.30;5.40;;;;;;;22.33;65.47;100943.22;5002493;28;20038;-81
2022/05/15 11:08:48;;;;;;;18.45;5.90;;;;;;;22.41;65.92;100951.34;5039719;28;20492;-80
2022/05/15 11:12:03;;;;;;;15.98;5.35;;;;;;;22.46;65.90;100944.25;5034019;28;20025;-81
2022/05/15 11:14:58;;;;;;;22.70;5.35;;;;;;;22.63;65.51;100922.88;5012859;28;20037;-80
2022/05/15 11:18:10;;;;;;;19.63;5.95;;;;;;;22.62;66.21;100919.31;5014261;28;20065;-80
2022/05/15 11:20:46;;;;;;;54.92;10.50;;;;;;;22.61;65.58;100917.63;5038594;28;20391;-79
2022/05/15 11:23:33;;;;;;;42.30;8.02;;;;;;;22.60;65.99;100932.34;5037125;28;20021;-80
2022/05/15 11:26:09;;;;;;;11.93;4.63;;;;;;;22.45;64.28;100937.06;5037499;28;20446;-79
2022/05/15 11:28:47;;;;;;;18.73;6.45;;;;;;;22.38;64.32;100936.16;5042284;28;20021;-80
2022/05/15 11:31:17;;;;;;;23.27;6.80;;;;;;;22.29;64.17;100934.56;5045807;28;20037;-80
2022/05/15 11:33:55;;;;;;;17.50;6.10;;;;;;;22.24;64.60;100929.66;5044007;28;20121;-79
2022/05/15 11:36:21;;;;;;;21.95;6.53;;;;;;;22.05;64.76;100930.25;5043731;28;20029;-79
2022/05/15 11:38:58;;;;;;;12.15;6.00;;;;;;;21.95;65.91;100924.25;5041966;28;20053;-80
2022/05/15 11:41:36;;;;;;;14.85;6.50;;;;;;;21.71;66.30;100928.09;5034292;28;20087;-79
2022/05/15 11:44:13;;;;;;;17.13;5.90;;;;;;;21.73;67.34;100924.31;5035210;28;20021;-80
2022/05/15 11:46:45;;;;;;;23.70;6.65;;;;;;;21.60;67.61;100923.09;5035856;28;20037;-81
2022/05/15 11:49:17;;;;;;;23.88;7.47;;;;;;;21.44;68.44;100926.03;5033952;28;20091;-80
2022/05/15 11:51:56;;;;;;;45.38;8.52;;;;;;;21.40;68.23;100924.72;5033589;28;20454;-80